Time;durP1;ratioP1;P1;durP2;ratioP2;P2;SDS_P1;SDS_P2;PMS_P1;PMS_P2;Temp;Humidity;BMP_temperature;BMP_pressure;BME280_temperature;BME280_humidity;BME280_pressure;Samples;Min_cycle;Max_cycle;Signal;HPM_P1;HPM_P2
2023/01/27 00:00:19;;;;;;;6.90;1.88;;;6.00;99.90;;;;;;4078776;29;20510;-67
2023/01/27 00:02:19;;;;;;;6.78;1.58;;;6.00;99.90;;;;;;4099697;28;20039;-67
2023/01/27 00:04:20;;;;;;;10.32;2.25;;;6.00;99.90;;;;;;4079826;28;20120;-67
2023/01/27 00:06:20;;;;;;;8.27;2.42;;;6.00;99.90;;;;;;4092547;28;20035;-67
2023/01/27 00:08:21;;;;;;;10.73;2.75;;;5.90;99.90;;;;;;4095711;28;20054;-67
2023/01/27 00:10:22;;;;;;;7.78;2.17;;;5.90;99.90;;;;;;4096876;28;20510;-68
2023/01/27 00:14:44;;;;;;;8.70;2.67;;;5.90;99.90;;;;;;4095506;28;20106;-67
2023/01/27 00:16:45;;;;;;;9.27;1.98;;;5.90;99.90;;;;;;4094684;28;20054;-67
2023/01/27 00:18:45;;;;;;;7.57;2.15;;;5.90;99.90;;;;;;4096757;28;20052;-67
2023/01/27 00:25:39;;;;;;;8.32;1.88;;;5.80;99.90;;;;;;4092732;28;20035;-67
2023/01/27 00:27:40;;;;;;;8.65;2.35;;;5.90;99.90;;;;;;4095467;28;20145;-67
2023/01/27 00:29:41;;;;;;;8.82;2.08;;;5.90;99.90;;;;;;4095160;28;20106;-67
2023/01/27 00:34:07;;;;;;;8.30;1.90;;;5.80;99.90;;;;;;4092398;28;20475;-68
2023/01/27 00:36:08;;;;;;;5.38;1.67;;;5.80;99.90;;;;;;4090574;28;20461;-67
2023/01/27 00:38:08;;;;;;;6.38;2.03;;;5.80;99.90;;;;;;4097564;28;20047;-67
2023/01/27 00:40:11;;;;;;;5.97;1.67;;;5.80;99.90;;;;;;4094064;28;20132;-67
2023/01/27 00:42:12;;;;;;;7.60;1.85;;;5.80;99.90;;;;;;4094477;28;20403;-67
2023/01/27 00:44:13;;;;;;;6.78;2.05;;;5.80;99.90;;;;;;4092624;28;20055;-67
2023/01/27 00:46:14;;;;;;;10.30;2.58;;;5.80;99.90;;;;;;4093293;28;20079;-67
2023/01/27 00:48:15;;;;;;;5.97;1.85;;;5.80;99.90;;;;;;4097806;28;20063;-67
2023/01/27 00:50:15;;;;;;;7.63;2.13;;;5.80;99.90;;;;;;4095245;28;20042;-67
2023/01/27 00:52:16;;;;;;;7.85;1.92;;;5.80;99.90;;;;;;4095164;28;20054;-67
2023/01/27 00:54:17;;;;;;;5.97;1.92;;;5.80;99.90;;;;;;4097103;28;20102;-67
2023/01/27 00:56:18;;;;;;;9.68;2.25;;;5.80;99.90;;;;;;4095396;28;20495;-67
2023/01/27 00:58:18;;;;;;;7.53;2.38;;;5.80;99.90;;;;;;4096553;28;20475;-67
2023/01/27 01:00:19;;;;;;;6.05;2.15;;;5.80;99.90;;;;;;4095680;28;20035;-67
2023/01/27 01:02:20;;;;;;;9.77;1.85;;;5.80;99.90;;;;;;4099505;28;20558;-67
2023/01/27 01:04:20;;;;;;;12.90;2.60;;;5.80;99.90;;;;;;4096511;28;20040;-67
2023/01/27 01:06:21;;;;;;;11.25;2.40;;;5.80;99.90;;;;;;4093724;28;20043;-67
2023/01/27 01:08:21;;;;;;;4.80;1.73;;;5.80;99.90;;;;;;4096395;28;20051;-67
2023/01/27 01:10:22;;;;;;;9.50;2.35;;;5.80;99.90;;;;;;4099281;28;20101;-67
2023/01/27 01:12:24;;;;;;;11.80;2.58;;;5.70;99.90;;;;;;4103274;28;20525;-67
2023/01/27 01:14:24;;;;;;;9.05;2.35;;;5.80;99.90;;;;;;4097775;28;20114;-67
2023/01/27 01:16:25;;;;;;;7.93;2.78;;;5.70;99.90;;;;;;4100036;28;20379;-67
2023/01/27 01:18:25;;;;;;;7.05;2.30;;;5.80;99.90;;;;;;4100660;28;20474;-67
2023/01/27 01:20:26;;;;;;;8.23;2.40;;;5.70;99.90;;;;;;4099562;28;20122;-67
2023/01/27 01:22:27;;;;;;;10.05;2.50;;;5.80;99.90;;;;;;4098814;28;20478;-67
2023/01/27 01:24:27;;;;;;;10.43;2.60;;;5.70;99.90;;;;;;4081088;29;20357;-67
2023/01/27 01:26:28;;;;;;;6.95;2.45;;;5.80;99.90;;;;;;4096086;28;20039;-67
2023/01/27 01:28:28;;;;;;;7.88;2.75;;;5.70;99.90;;;;;;4096386;28;20398;-67
2023/01/27 01:30:29;;;;;;;6.82;2.65;;;5.70;99.90;;;;;;4097631;28;20123;-67
2023/01/27 01:32:31;;;;;;;12.07;3.00;;;5.80;99.90;;;;;;4098356;28;20105;-67
2023/01/27 01:34:31;;;;;;;10.60;2.95;;;5.70;99.90;;;;;;4099332;28;20035;-67
2023/01/27 01:36:32;;;;;;;8.77;2.13;;;5.70;99.90;;;;;;4096891;28;20442;-67
2023/01/27 01:38:33;;;;;;;9.90;2.42;;;5.70;99.90;;;;;;4098999;28;20134;-67
2023/01/27 01:40:38;;;;;;;10.32;2.90;;;5.70;99.90;;;;;;4095746;28;20118;-67
2023/01/27 01:43:05;;;;;;;9.20;3.13;;;5.70;99.90;;;;;;4098383;28;20043;-67
2023/01/27 01:45:31;;;;;;;7.95;2.53;;;5.70;99.90;;;;;;4094693;28;20402;-67
2023/01/27 01:47:31;;;;;;;11.55;3.20;;;5.70;99.90;;;;;;4097746;28;20054;-67
2023/01/27 01:49:37;;;;;;;10.20;3.00;;;5.60;99.90;;;;;;4096565;28;20482;-67
2023/01/27 01:51:44;;;;;;;10.18;3.50;;;5.60;99.90;;;;;;4094608;28;20492;-66
2023/01/27 01:53:51;;;;;;;13.68;3.35;;;5.60;99.90;;;;;;4094646;28;20479;-67
2023/01/27 01:55:52;;;;;;;8.98;3.60;;;5.60;99.90;;;;;;4095674;28;20073;-67
2023/01/27 01:57:53;;;;;;;7.65;3.42;;;5.50;99.90;;;;;;4097605;28;20037;-67
2023/01/27 02:00:00;;;;;;;7.55;3.22;;;5.50;99.90;;;;;;4095535;28;20059;-67
2023/01/27 02:02:07;;;;;;;5.80;3.03;;;5.60;99.90;;;;;;4095181;28;20035;-66
2023/01/27 02:04:18;;;;;;;9.98;3.45;;;5.60;99.90;;;;;;4096776;28;20042;-67
2023/01/27 02:06:19;;;;;;;5.70;3.20;;;5.50;99.90;;;;;;4093708;28;20039;-66
2023/01/27 02:08:29;;;;;;;8.20;3.90;;;5.50;99.90;;;;;;4096346;28;20525;-67
2023/01/27 02:10:33;;;;;;;10.15;4.57;;;5.50;99.90;;;;;;4093662;28;20055;-67
2023/01/27 02:12:33;;;;;;;10.20;4.55;;;5.50;99.90;;;;;;4095077;28;20122;-67
2023/01/27 02:14:34;;;;;;;12.75;4.70;;;5.50;99.90;;;;;;4093924;28;20038;-66
2023/01/27 02:16:35;;;;;;;11.18;5.70;;;5.50;99.90;;;;;;4095185;28;20042;-67
2023/01/27 02:18:38;;;;;;;14.10;5.63;;;5.40;99.90;;;;;;4100691;28;20467;-67
2023/01/27 02:20:53;;;;;;;12.05;6.13;;;5.30;99.90;;;;;;4097474;28;20055;-67
2023/01/27 02:23:18;;;;;;;14.13;7.18;;;5.30;99.90;;;;;;4097395;28;20039;-66
2023/01/27 02:25:33;;;;;;;17.67;7.88;;;5.30;99.90;;;;;;4095648;28;20403;-66
2023/01/27 02:27:34;;;;;;;15.35;8.57;;;5.30;99.90;;;;;;4096616;28;20039;-67
2023/01/27 02:29:34;;;;;;;18.83;9.65;;;5.20;99.90;;;;;;4095152;28;20575;-67
2023/01/27 02:31:35;;;;;;;20.13;10.40;;;5.20;99.90;;;;;;4094370;29;20044;-67
2023/01/27 02:33:35;;;;;;;18.17;9.93;;;5.10;99.90;;;;;;4095739;28;20125;-67
2023/01/27 02:35:53;;;;;;;20.60;9.75;;;5.10;99.90;;;;;;4094740;28;20074;-66
2023/01/27 02:37:54;;;;;;;22.15;10.98;;;5.20;99.90;;;;;;4096444;28;20035;-66
2023/01/27 02:39:57;;;;;;;22.00;10.63;;;5.10;99.90;;;;;;4095758;28;20410;-67
2023/01/27 02:41:58;;;;;;;25.63;11.88;;;5.30;99.90;;;;;;4096276;28;20042;-66
2023/01/27 02:43:59;;;;;;;19.83;10.75;;;5.20;99.90;;;;;;4091844;28;20039;-66
2023/01/27 02:46:00;;;;;;;23.35;10.25;;;5.20;99.90;;;;;;4094471;28;20110;-67
2023/01/27 02:48:00;;;;;;;17.45;10.25;;;5.20;99.90;;;;;;4096391;28;20035;-67
2023/01/27 02:50:01;;;;;;;15.93;9.38;;;5.20;99.90;;;;;;4096982;28;20035;-67
2023/01/27 02:52:02;;;;;;;18.70;10.90;;;5.10;99.90;;;;;;4094119;28;20046;-67
2023/01/27 02:54:02;;;;;;;19.00;10.15;;;5.20;99.90;;;;;;4096279;28;20034;-67
2023/01/27 02:56:04;;;;;;;18.65;10.88;;;5.20;99.90;;;;;;4093537;28;20046;-67
2023/01/27 02:58:04;;;;;;;15.38;10.20;;;5.10;99.90;;;;;;4097384;28;20049;-67
2023/01/27 03:00:08;;;;;;;22.65;10.80;;;5.20;99.90;;;;;;4094929;28;20114;-67
2023/01/27 03:02:13;;;;;;;26.58;11.20;;;5.20;99.90;;;;;;4095199;28;20118;-67
2023/01/27 03:04:14;;;;;;;21.70;11.07;;;5.00;99.90;;;;;;4097705;28;20035;-66
2023/01/27 03:06:15;;;;;;;20.25;10.77;;;4.90;99.90;;;;;;4075552;29;20059;-67
2023/01/27 03:08:17;;;;;;;17.65;10.00;;;4.90;99.90;;;;;;4097021;28;20174;-66
2023/01/27 03:10:18;;;;;;;18.40;10.37;;;4.90;99.90;;;;;;4096910;28;20149;-66
2023/01/27 03:12:18;;;;;;;17.42;10.43;;;5.00;99.90;;;;;;4094445;28;20052;-66
2023/01/27 03:14:19;;;;;;;19.20;10.85;;;4.90;99.90;;;;;;4094971;28;20035;-67
2023/01/27 03:18:39;;;;;;;20.58;10.82;;;4.90;99.90;;;;;;4095465;28;20381;-67
2023/01/27 03:20:44;;;;;;;21.77;10.98;;;4.90;99.90;;;;;;4094222;28;20115;-66
2023/01/27 03:22:45;;;;;;;16.00;10.30;;;4.80;99.90;;;;;;4095080;28;20046;-67
2023/01/27 03:24:45;;;;;;;17.63;10.52;;;4.80;99.90;;;;;;4091908;28;20043;-66
2023/01/27 03:26:46;;;;;;;16.33;9.38;;;4.60;99.90;;;;;;4090940;28;20138;-66
2023/01/27 03:29:53;;;;;;;18.48;9.50;;;4.60;99.90;;;;;;4094319;28;20039;-66
2023/01/27 03:31:18;;;;;;;16.55;9.38;;;4.70;99.90;;;;;;4091704;28;20035;-66
2023/01/27 03:33:18;;;;;;;16.90;8.60;;;4.60;99.90;;;;;;4094934;28;20043;-67
2023/01/27 03:35:19;;;;;;;15.95;8.27;;;4.60;99.90;;;;;;4091829;28;20111;-66
2023/01/27 03:46:37;;;;;;;16.45;6.93;;;4.70;99.90;;;;;;4074593;29;20422;-67
2023/01/27 03:48:37;;;;;;;11.68;6.80;;;4.70;99.90;;;;;;4079636;28;20036;-66
2023/01/27 03:50:42;;;;;;;12.15;7.50;;;4.80;99.90;;;;;;4094262;28;20110;-67
2023/01/27 03:53:01;;;;;;;14.82;7.75;;;4.80;99.90;;;;;;4095670;28;20043;-67
2023/01/27 03:55:03;;;;;;;12.77;7.03;;;4.70;99.90;;;;;;4092221;28;20068;-68
2023/01/27 03:57:04;;;;;;;11.50;7.05;;;4.80;99.90;;;;;;4090962;28;20099;-67
2023/01/27 03:59:05;;;;;;;12.45;6.65;;;4.80;99.90;;;;;;4094675;28;20075;-67
2023/01/27 04:01:07;;;;;;;12.65;7.03;;;4.90;99.90;;;;;;4089731;28;20062;-67
2023/01/27 04:07:48;;;;;;;12.05;7.57;;;4.90;99.90;;;;;;4093714;28;20085;-67
2023/01/27 04:09:50;;;;;;;13.88;7.82;;;4.90;99.90;;;;;;4094612;28;20039;-67
2023/01/27 04:11:54;;;;;;;15.48;8.70;;;4.90;99.90;;;;;;4096209;28;20031;-66
2023/01/27 04:13:58;;;;;;;14.80;8.88;;;4.90;99.90;;;;;;4094772;28;20040;-67
2023/01/27 04:15:59;;;;;;;14.98;7.82;;;5.00;99.90;;;;;;4093717;28;20083;-66
2023/01/27 04:18:00;;;;;;;16.05;8.27;;;5.00;99.90;;;;;;4094301;28;20535;-67
2023/01/27 04:20:01;;;;;;;17.95;9.85;;;5.00;99.90;;;;;;4098448;28;20110;-66
2023/01/27 04:22:03;;;;;;;24.98;11.10;;;5.00;99.90;;;;;;4099173;28;20034;-66
2023/01/27 04:24:07;;;;;;;14.52;9.30;;;5.00;99.90;;;;;;4096950;28;20421;-68
2023/01/27 04:26:08;;;;;;;15.32;8.73;;;5.00;99.90;;;;;;4091241;28;20031;-66
2023/01/27 04:28:08;;;;;;;14.63;9.07;;;5.00;99.90;;;;;;4079752;28;20094;-67
2023/01/27 04:30:09;;;;;;;15.68;9.65;;;5.10;99.90;;;;;;4095426;28;20031;-67
2023/01/27 04:32:12;;;;;;;14.63;9.68;;;5.10;99.90;;;;;;4079528;29;20507;-67
2023/01/27 04:34:12;;;;;;;17.83;9.57;;;5.00;99.90;;;;;;4092565;28;20451;-67
2023/01/27 04:36:14;;;;;;;19.70;10.40;;;5.10;99.90;;;;;;4094645;28;20039;-67
2023/01/27 04:38:14;;;;;;;17.35;10.10;;;5.10;99.90;;;;;;4095814;28;20613;-67
2023/01/27 04:40:15;;;;;;;18.35;10.45;;;5.10;99.90;;;;;;4099912;28;20027;-66
2023/01/27 04:42:16;;;;;;;15.55;9.05;;;5.10;99.90;;;;;;4095425;28;20487;-67
2023/01/27 04:44:20;;;;;;;18.13;10.10;;;5.10;99.90;;;;;;4092772;28;20039;-67
2023/01/27 04:46:21;;;;;;;18.80;10.13;;;5.10;99.90;;;;;;4093506;28;20035;-66
2023/01/27 04:48:21;;;;;;;17.13;10.40;;;5.10;99.90;;;;;;4094974;28;20090;-67
2023/01/27 04:50:22;;;;;;;16.80;9.20;;;5.10;99.90;;;;;;4098054;28;20035;-67
2023/01/27 04:52:22;;;;;;;21.70;9.05;;;5.10;99.90;;;;;;4096881;28;20034;-67
2023/01/27 04:54:23;;;;;;;15.75;9.93;;;5.10;99.90;;;;;;4096140;28;20087;-67
2023/01/27 04:56:26;;;;;;;15.35;9.68;;;5.10;99.90;;;;;;4097050;28;20046;-66
2023/01/27 04:58:27;;;;;;;16.02;9.68;;;5.10;99.90;;;;;;4096518;28;20063;-67
2023/01/27 05:00:28;;;;;;;14.07;8.88;;;5.20;99.90;;;;;;4096653;28;20054;-67
2023/01/27 05:02:28;;;;;;;13.77;8.88;;;5.20;99.90;;;;;;4094335;28;20077;-67
2023/01/27 05:04:29;;;;;;;15.35;9.80;;;5.10;99.90;;;;;;4095405;28;20398;-66
2023/01/27 05:06:30;;;;;;;14.18;9.75;;;5.20;99.90;;;;;;4091224;28;20415;-66
2023/01/27 05:08:30;;;;;;;17.27;10.07;;;5.20;99.90;;;;;;4093036;28;20607;-67
2023/01/27 05:10:31;;;;;;;16.60;10.80;;;5.20;99.90;;;;;;4098018;28;20126;-67
2023/01/27 05:12:32;;;;;;;15.15;9.70;;;5.10;99.90;;;;;;4094450;28;20050;-67
2023/01/27 05:14:33;;;;;;;17.52;10.48;;;5.10;99.90;;;;;;4098277;28;20047;-67
2023/01/27 05:16:33;;;;;;;14.93;9.98;;;5.20;99.90;;;;;;4093829;28;20031;-66
2023/01/27 05:18:35;;;;;;;16.83;9.77;;;5.10;99.90;;;;;;4096562;28;20482;-67
2023/01/27 05:20:35;;;;;;;15.95;9.88;;;5.10;99.90;;;;;;4094078;28;20074;-67
2023/01/27 05:22:36;;;;;;;17.70;11.50;;;5.10;99.90;;;;;;4093310;28;20039;-67
2023/01/27 05:24:37;;;;;;;15.00;10.00;;;5.10;99.90;;;;;;4097106;28;20065;-67
2023/01/27 05:26:37;;;;;;;15.48;9.52;;;5.00;99.90;;;;;;4096296;28;20458;-67
2023/01/27 05:28:40;;;;;;;13.68;9.23;;;5.10;99.90;;;;;;4093737;28;20050;-67
2023/01/27 05:30:41;;;;;;;17.80;10.10;;;5.10;99.90;;;;;;4091826;28;20046;-67
2023/01/27 05:32:41;;;;;;;15.02;9.52;;;5.10;99.90;;;;;;4095457;28;20410;-67
2023/01/27 05:34:42;;;;;;;16.85;10.30;;;5.10;99.90;;;;;;4092356;28;20402;-66
2023/01/27 05:36:42;;;;;;;17.65;10.32;;;5.10;99.90;;;;;;4093464;28;20035;-67
2023/01/27 05:38:44;;;;;;;15.00;9.40;;;5.10;99.90;;;;;;4094508;28;20039;-66
2023/01/27 05:40:44;;;;;;;12.50;8.85;;;5.10;99.90;;;;;;4072187;29;20088;-67
2023/01/27 05:42:45;;;;;;;17.45;10.23;;;5.10;99.90;;;;;;4074618;29;20035;-67
2023/01/27 05:44:45;;;;;;;11.80;8.77;;;5.10;99.90;;;;;;4090821;28;20038;-67
2023/01/27 05:46:46;;;;;;;12.07;8.70;;;5.10;99.90;;;;;;4054210;29;20036;-67
2023/01/27 05:48:49;;;;;;;14.00;8.38;;;5.10;99.90;;;;;;4095904;28;20042;-66
2023/01/27 05:50:54;;;;;;;13.85;8.27;;;5.10;99.90;;;;;;4092273;28;20069;-67
2023/01/27 05:52:54;;;;;;;12.02;8.57;;;5.10;99.90;;;;;;4093267;28;21579;-67
2023/01/27 05:54:55;;;;;;;11.27;7.97;;;5.10;99.90;;;;;;4093651;28;20489;-67
2023/01/27 05:56:55;;;;;;;9.88;7.75;;;5.10;99.90;;;;;;4094373;28;20041;-67
2023/01/27 05:58:57;;;;;;;12.55;7.93;;;5.10;99.90;;;;;;4079595;29;20050;-66
2023/01/27 06:01:10;;;;;;;13.27;7.75;;;5.10;99.90;;;;;;4096956;28;20251;-66
2023/01/27 06:03:11;;;;;;;9.82;6.82;;;5.00;99.90;;;;;;4096564;28;20404;-66
2023/01/27 06:05:11;;;;;;;10.98;6.93;;;5.10;99.90;;;;;;4095199;28;20055;-67
2023/01/27 06:07:12;;;;;;;10.52;7.43;;;5.10;99.90;;;;;;4099194;28;20106;-67
2023/01/27 06:09:13;;;;;;;10.27;7.30;;;5.10;99.90;;;;;;4074947;29;20070;-67
2023/01/27 06:11:14;;;;;;;12.23;7.28;;;5.10;99.90;;;;;;4091710;28;20047;-67
2023/01/27 06:13:15;;;;;;;10.75;7.80;;;5.10;99.90;;;;;;4097454;28;20035;-67
2023/01/27 06:15:15;;;;;;;10.00;7.43;;;5.00;99.90;;;;;;4097323;28;20434;-67
2023/01/27 06:17:16;;;;;;;10.35;7.70;;;5.10;99.90;;;;;;4098158;28;20035;-67
2023/01/27 06:19:17;;;;;;;9.68;6.82;;;5.10;99.90;;;;;;4095943;28;20043;-67
2023/01/27 06:21:19;;;;;;;9.30;6.65;;;5.10;99.90;;;;;;4088795;28;20045;-67
2023/01/27 06:23:19;;;;;;;11.23;7.97;;;5.10;99.90;;;;;;4071492;29;20104;-67
2023/01/27 06:25:20;;;;;;;11.25;7.10;;;5.20;99.90;;;;;;4089342;28;20495;-69
2023/01/27 06:27:20;;;;;;;10.38;6.82;;;5.20;99.90;;;;;;4088547;28;20043;-67
2023/01/27 06:29:21;;;;;;;10.73;7.53;;;5.20;99.90;;;;;;4073795;28;20087;-66
2023/01/27 06:31:22;;;;;;;15.18;9.07;;;5.20;99.90;;;;;;4080203;28;20059;-67
2023/01/27 06:33:22;;;;;;;10.10;7.15;;;5.20;99.90;;;;;;4090494;28;20128;-67
2023/01/27 06:35:23;;;;;;;10.50;6.65;;;5.30;99.90;;;;;;4087548;28;20417;-67
2023/01/27 06:37:23;;;;;;;10.98;7.53;;;5.20;99.90;;;;;;4090182;28;20050;-67
2023/01/27 06:39:24;;;;;;;10.48;7.38;;;5.20;99.90;;;;;;4090993;28;20043;-67
2023/01/27 06:41:25;;;;;;;8.60;6.80;;;5.20;99.90;;;;;;4093555;28;20035;-67
2023/01/27 06:43:25;;;;;;;10.38;7.10;;;5.30;99.90;;;;;;4090819;28;20036;-67
2023/01/27 06:45:27;;;;;;;10.48;7.40;;;5.30;99.90;;;;;;4089224;28;20042;-67
2023/01/27 06:47:27;;;;;;;11.85;7.72;;;5.30;99.90;;;;;;4089938;28;20050;-67
2023/01/27 06:49:28;;;;;;;12.25;8.48;;;5.30;99.90;;;;;;4088957;28;20039;-67
2023/01/27 06:51:28;;;;;;;13.25;7.95;;;5.30;99.90;;;;;;4089701;28;20039;-67
2023/01/27 06:53:30;;;;;;;12.40;7.90;;;5.30;99.90;;;;;;4093172;28;20039;-67
2023/01/27 06:55:31;;;;;;;11.18;7.70;;;5.30;99.90;;;;;;4089338;28;20039;-67
2023/01/27 06:57:31;;;;;;;10.90;8.20;;;5.30;99.90;;;;;;4088300;28;20046;-68
2023/01/27 06:59:32;;;;;;;11.07;8.30;;;5.30;99.90;;;;;;4088884;28;20063;-67
2023/01/27 07:01:34;;;;;;;10.93;8.35;;;5.30;99.90;;;;;;4087085;28;20047;-68
2023/01/27 07:03:34;;;;;;;11.85;8.55;;;5.30;99.90;;;;;;4089673;28;20047;-68
2023/01/27 07:05:36;;;;;;;14.30;9.32;;;5.30;99.90;;;;;;4087977;28;20031;-67
2023/01/27 07:07:37;;;;;;;11.85;8.93;;;5.30;99.90;;;;;;4086513;28;20084;-68
2023/01/27 07:09:38;;;;;;;11.98;8.82;;;5.30;99.90;;;;;;4088717;28;20074;-68
2023/01/27 07:11:38;;;;;;;13.90;9.10;;;5.30;99.90;;;;;;4088185;28;20047;-67
2023/01/27 07:13:39;;;;;;;13.57;9.18;;;5.30;99.90;;;;;;4086562;28;20112;-67
2023/01/27 07:15:40;;;;;;;12.27;8.05;;;5.20;99.90;;;;;;4087195;28;20035;-68
2023/01/27 07:17:41;;;;;;;10.25;8.18;;;5.30;99.90;;;;;;4089397;28;20059;-67
2023/01/27 07:19:41;;;;;;;10.70;8.15;;;5.30;99.90;;;;;;4089887;28;20513;-67
2023/01/27 07:21:42;;;;;;;9.98;7.65;;;5.30;99.90;;;;;;4088640;28;20478;-67
2023/01/27 07:23:43;;;;;;;12.60;8.40;;;5.30;99.90;;;;;;4088996;28;20062;-68
2023/01/27 07:25:43;;;;;;;11.68;8.23;;;5.30;99.90;;;;;;4087819;28;20090;-67
2023/01/27 07:27:44;;;;;;;11.32;8.13;;;5.30;99.90;;;;;;4087234;28;20127;-67
2023/01/27 07:29:44;;;;;;;11.18;7.85;;;5.30;99.90;;;;;;4089473;28;20106;-67
2023/01/27 07:31:45;;;;;;;10.05;7.90;;;5.30;99.90;;;;;;4089529;28;20035;-67
2023/01/27 07:33:46;;;;;;;11.88;8.27;;;5.30;99.90;;;;;;4089636;28;20035;-67
2023/01/27 07:35:48;;;;;;;12.75;8.25;;;5.30;99.90;;;;;;4089361;28;20035;-67
2023/01/27 07:37:49;;;;;;;12.45;7.78;;;5.30;99.90;;;;;;4089292;28;20027;-67
2023/01/27 07:39:49;;;;;;;11.38;8.18;;;5.30;99.90;;;;;;4089695;28;20031;-67
2023/01/27 07:41:50;;;;;;;10.90;7.72;;;5.40;99.90;;;;;;4089002;28;20392;-67
2023/01/27 07:43:50;;;;;;;9.98;7.10;;;5.30;99.90;;;;;;4089332;28;20492;-67
2023/01/27 07:45:53;;;;;;;9.80;7.45;;;5.30;99.90;;;;;;4088297;28;20514;-67
2023/01/27 07:47:58;;;;;;;;;;;5.30;99.90;;;;;;4088462;28;20031;-68
2023/01/27 07:49:59;;;;;;;9.48;7.10;;;5.30;99.90;;;;;;4084721;28;19918;-67
2023/01/27 07:51:59;;;;;;;11.00;7.18;;;5.30;99.90;;;;;;4084930;28;20038;-67
2023/01/27 07:54:00;;;;;;;11.65;8.05;;;5.30;99.90;;;;;;4089765;28;20035;-67
2023/01/27 07:56:01;;;;;;;10.50;7.53;;;5.30;99.90;;;;;;4085234;28;20051;-67
2023/01/27 07:58:01;;;;;;;10.32;7.47;;;5.30;99.90;;;;;;4089713;28;20432;-67
2023/01/27 08:00:04;;;;;;;9.40;6.97;;;5.40;99.90;;;;;;4084142;28;20950;-68
2023/01/27 08:02:05;;;;;;;9.70;7.35;;;5.40;99.90;;;;;;4084126;28;20067;-68
2023/01/27 08:04:06;;;;;;;9.70;6.90;;;5.40;99.90;;;;;;4088615;28;20406;-68
2023/01/27 08:06:08;;;;;;;10.30;7.30;;;5.40;99.90;;;;;;4073267;29;20042;-67
2023/01/27 08:08:09;;;;;;;;;;;5.40;99.90;;;;;;4089200;28;20047;-67
2023/01/27 08:10:10;;;;;;;10.55;7.65;;;5.40;99.90;;;;;;4088724;28;19993;-68
2023/01/27 08:12:10;;;;;;;10.07;7.60;;;5.40;99.90;;;;;;4089127;28;20070;-67
2023/01/27 08:14:11;;;;;;;9.57;7.05;;;5.40;99.90;;;;;;4087720;28;20505;-67
2023/01/27 08:16:13;;;;;;;9.50;7.13;;;5.40;99.90;;;;;;4088116;28;20109;-67
2023/01/27 08:18:14;;;;;;;9.52;7.53;;;5.40;99.90;;;;;;4090631;28;20494;-67
2023/01/27 08:20:16;;;;;;;10.43;7.43;;;5.40;99.90;;;;;;4090522;28;20039;-67
2023/01/27 08:22:20;;;;;;;11.37;6.90;;;5.40;99.90;;;;;;4089074;28;20034;-67
2023/01/27 08:24:21;;;;;;;9.02;6.50;;;5.40;99.90;;;;;;4087970;28;20030;-67
2023/01/27 08:26:24;;;;;;;10.77;7.82;;;5.40;99.90;;;;;;4086647;28;20550;-67
2023/01/27 08:28:28;;;;;;;7.80;6.50;;;5.50;99.90;;;;;;4087972;28;20505;-67
2023/01/27 08:30:28;;;;;;;13.50;7.32;;;5.50;99.90;;;;;;4088087;28;20051;-67
2023/01/27 08:32:29;;;;;;;10.43;7.60;;;5.50;99.90;;;;;;4089241;28;20041;-67
2023/01/27 08:34:29;;;;;;;9.80;7.18;;;5.50;99.90;;;;;;4089336;28;20047;-67
2023/01/27 08:36:30;;;;;;;10.98;7.15;;;5.50;99.90;;;;;;4089243;28;20043;-67
2023/01/27 08:38:30;;;;;;;9.73;6.70;;;5.50;99.90;;;;;;4088239;28;20055;-67
2023/01/27 08:40:31;;;;;;;12.32;7.82;;;5.50;99.90;;;;;;4088577;28;20062;-67
2023/01/27 08:42:32;;;;;;;8.75;7.00;;;5.50;99.90;;;;;;4087286;28;20046;-67
2023/01/27 08:44:32;;;;;;;8.75;6.55;;;5.50;99.90;;;;;;4087199;28;20045;-67
2023/01/27 08:46:33;;;;;;;8.00;6.53;;;5.50;99.90;;;;;;4086287;28;20050;-67
2023/01/27 08:48:35;;;;;;;8.23;6.30;;;5.50;99.90;;;;;;4088257;28;20085;-67
2023/01/27 08:50:36;;;;;;;12.80;7.00;;;5.50;99.90;;;;;;4087634;28;20039;-68
2023/01/27 08:52:37;;;;;;;8.63;6.85;;;5.50;99.90;;;;;;4088555;28;20533;-68
2023/01/27 08:54:37;;;;;;;8.07;6.22;;;5.40;99.90;;;;;;4088413;28;20095;-68
2023/01/27 08:56:38;;;;;;;7.75;6.20;;;5.50;99.90;;;;;;4086971;28;20031;-67
2023/01/27 08:58:39;;;;;;;9.82;6.55;;;5.50;99.90;;;;;;4087029;28;20055;-67
2023/01/27 09:00:39;;;;;;;8.82;6.53;;;5.50;99.90;;;;;;4087012;28;20480;-68
2023/01/27 09:02:40;;;;;;;9.20;6.43;;;5.50;99.90;;;;;;4088404;28;20510;-68
2023/01/27 09:04:43;;;;;;;9.60;6.65;;;5.50;99.90;;;;;;4086846;28;20183;-68
2023/01/27 09:06:44;;;;;;;;;;;5.60;99.90;;;;;;4087071;28;20490;-67
2023/01/27 09:09:07;;;;;;;7.07;6.15;;;5.60;99.90;;;;;;4088241;28;19969;-67
2023/01/27 09:11:16;;;;;;;7.05;6.13;;;5.60;99.90;;;;;;4082870;28;20130;-68
2023/01/27 09:13:18;;;;;;;8.52;6.35;;;5.60;99.90;;;;;;4088682;28;20047;-67
2023/01/27 09:15:18;;;;;;;7.75;6.25;;;5.60;99.90;;;;;;4086337;28;20115;-67
2023/01/27 09:17:19;;;;;;;9.38;6.85;;;5.60;99.90;;;;;;4087948;28;20503;-67
2023/01/27 09:19:19;;;;;;;11.23;6.45;;;5.60;99.90;;;;;;4085691;28;20189;-67
2023/01/27 09:21:20;;;;;;;7.35;5.80;;;5.60;99.90;;;;;;4086900;28;20134;-67
2023/01/27 09:23:21;;;;;;;6.03;5.15;;;5.70;99.90;;;;;;4088466;28;20502;-67
2023/01/27 09:25:22;;;;;;;6.85;5.88;;;5.70;99.90;;;;;;4087072;28;20050;-67
2023/01/27 09:27:23;;;;;;;8.02;5.45;;;5.70;99.90;;;;;;4090577;28;20435;-67
2023/01/27 09:29:23;;;;;;;7.88;5.75;;;5.80;99.90;;;;;;4090726;28;20035;-67
2023/01/27 09:31:24;;;;;;;5.90;5.30;;;5.80;99.90;;;;;;4088616;28;20043;-67
2023/01/27 09:33:25;;;;;;;8.80;5.78;;;5.90;99.90;;;;;;4089511;28;20040;-67
2023/01/27 09:35:35;;;;;;;7.27;5.17;;;5.80;99.90;;;;;;4090926;28;20040;-67
2023/01/27 09:37:43;;;;;;;7.40;5.25;;;5.80;99.90;;;;;;4091816;28;20095;-67
2023/01/27 09:39:51;;;;;;;6.82;5.20;;;5.80;99.90;;;;;;4091039;28;20039;-67
2023/01/27 09:42:07;;;;;;;6.22;5.35;;;5.90;99.90;;;;;;4091111;28;20132;-67
2023/01/27 09:44:45;;;;;;;7.10;5.40;;;5.90;99.90;;;;;;4090074;28;20050;-67
2023/01/27 09:47:04;;;;;;;5.82;4.38;;;5.90;99.90;;;;;;4087795;28;20383;-67
2023/01/27 09:49:13;;;;;;;7.22;5.70;;;6.00;99.90;;;;;;4092005;28;20063;-67
2023/01/27 09:51:30;;;;;;;6.80;5.43;;;5.90;99.90;;;;;;4088570;28;20094;-68
2023/01/27 09:53:54;;;;;;;6.50;4.80;;;5.80;99.90;;;;;;4091841;28;20036;-68
2023/01/27 09:56:07;;;;;;;6.45;4.85;;;5.90;99.90;;;;;;4087512;28;20040;-68
2023/01/27 09:58:13;;;;;;;6.22;4.97;;;5.90;99.90;;;;;;4088800;28;20039;-68
2023/01/27 10:00:35;;;;;;;6.07;4.82;;;6.00;99.90;;;;;;4088523;28;20043;-68
2023/01/27 10:02:35;;;;;;;6.93;5.35;;;6.00;99.90;;;;;;4091334;28;20102;-68
2023/01/27 10:04:48;;;;;;;6.57;4.50;;;6.00;99.90;;;;;;4091494;28;20095;-68
2023/01/27 10:07:26;;;;;;;6.07;5.15;;;6.00;99.90;;;;;;4089982;28;20035;-68
2023/01/27 10:09:48;;;;;;;7.35;5.50;;;6.00;99.90;;;;;;4089477;28;20122;-68
2023/01/27 10:12:22;;;;;;;6.88;4.80;;;5.90;99.90;;;;;;4089781;28;20039;-68
2023/01/27 10:14:34;;;;;;;6.03;4.55;;;5.90;99.90;;;;;;4089670;28;20559;-68
2023/01/27 10:16:50;;;;;;;6.40;4.72;;;5.80;99.90;;;;;;4088405;28;20024;-68
2023/01/27 10:19:27;;;;;;;6.93;5.30;;;5.90;99.90;;;;;;4089469;28;20073;-67
2023/01/27 10:21:36;;;;;;;5.03;4.35;;;6.00;99.90;;;;;;4088883;28;20502;-68
2023/01/27 10:23:58;;;;;;;5.80;4.43;;;6.00;99.90;;;;;;4087509;28;20126;-68
2023/01/27 10:26:11;;;;;;;5.20;4.28;;;6.00;99.90;;;;;;4087545;28;20036;-68
2023/01/27 10:28:16;;;;;;;;;;;6.10;99.90;;;;;;4072602;29;20107;-68
2023/01/27 10:30:35;;;;;;;8.25;5.65;;;6.10;99.90;;;;;;4089911;28;19910;-68
2023/01/27 10:33:00;;;;;;;6.97;5.00;;;6.10;99.90;;;;;;4087300;28;20401;-68
2023/01/27 10:35:06;;;;;;;6.63;4.60;;;6.20;99.90;;;;;;4088367;28;20373;-68
2023/01/27 10:37:25;;;;;;;5.70;4.80;;;6.20;99.90;;;;;;4087937;28;20176;-68
2023/01/27 10:39:55;;;;;;;6.28;4.88;;;6.20;99.90;;;;;;4088570;28;20043;-68
2023/01/27 10:42:15;;;;;;;6.97;5.60;;;6.30;99.90;;;;;;4086907;28;20039;-68
2023/01/27 10:44:43;;;;;;;7.03;5.10;;;6.30;99.90;;;;;;4087978;28;20498;-68
2023/01/27 10:47:10;;;;;;;6.10;5.18;;;6.30;99.90;;;;;;4084842;28;20048;-68
2023/01/27 10:49:25;;;;;;;6.70;4.80;;;6.30;99.90;;;;;;4090521;28;20517;-68
2023/01/27 10:51:40;;;;;;;8.50;5.25;;;6.30;99.90;;;;;;4088531;28;20402;-68
2023/01/27 10:53:56;;;;;;;6.15;5.13;;;6.30;99.90;;;;;;4087675;28;20074;-68
2023/01/27 10:56:26;;;;;;;6.00;4.65;;;6.30;99.90;;;;;;4072963;28;20393;-68
2023/01/27 10:59:05;;;;;;;7.30;5.63;;;6.30;99.90;;;;;;4073531;29;20050;-67
2023/01/27 11:01:09;;;;;;;7.65;5.15;;;6.40;99.90;;;;;;4071044;28;20494;-68
2023/01/27 11:03:20;;;;;;;6.07;5.22;;;6.50;99.90;;;;;;4088861;28;20050;-67
2023/01/27 11:05:38;;;;;;;6.57;5.50;;;6.40;99.90;;;;;;4076382;29;20042;-67
2023/01/27 11:07:48;;;;;;;6.63;5.15;;;6.40;99.90;;;;;;4087758;28;20531;-68
2023/01/27 11:10:04;;;;;;;7.35;5.53;;;6.40;99.90;;;;;;4088981;28;20038;-68
2023/01/27 11:12:12;;;;;;;8.02;5.78;;;6.50;99.90;;;;;;4089535;28;20130;-68
2023/01/27 11:14:24;;;;;;;7.20;5.50;;;6.30;99.90;;;;;;4088251;28;20036;-68